sensor_id;sensor_type;location;lat;lon;timestamp;pressure;altitude;pressure_sealevel;temperature;humidity
6218;BME280;3142;48.206;11.550;2023-04-15T00:00:15;94706.28;;;8.01;80.00
6218;BME280;3142;48.206;11.550;2023-04-15T00:02:42;94699.47;;;8.00;80.04
6218;BME280;3142;48.206;11.550;2023-04-15T00:05:08;94691.44;;;8.02;79.94
6218;BME280;3142;48.206;11.550;2023-04-15T00:07:36;94691.22;;;8.03;78.65
6218;BME280;3142;48.206;11.550;2023-04-15T00:10:03;94696.22;;;8.05;78.77
6218;BME280;3142;48.206;11.550;2023-04-15T00:12:29;94693.84;;;8.03;79.66
6218;BME280;3142;48.206;11.550;2023-04-15T00:14:56;94692.03;;;8.04;79.72
6218;BME280;3142;48.206;11.550;2023-04-15T00:17:23;94685.22;;;8.03;78.88
6218;BME280;3142;48.206;11.550;2023-04-15T00:19:49;94690.84;;;8.00;79.35
6218;BME280;3142;48.206;11.550;2023-04-15T00:22:16;94683.63;;;8.02;79.36
6218;BME280;3142;48.206;11.550;2023-04-15T00:24:44;94682.41;;;8.05;79.06
6218;BME280;3142;48.206;11.550;2023-04-15T00:27:11;94679.22;;;8.02;79.26
6218;BME280;3142;48.206;11.550;2023-04-15T00:29:37;94678.63;;;8.00;78.92
6218;BME280;3142;48.206;11.550;2023-04-15T00:32:04;94683.25;;;7.98;79.27
6218;BME280;3142;48.206;11.550;2023-04-15T00:34:30;94678.84;;;7.99;79.70
6218;BME280;3142;48.206;11.550;2023-04-15T00:36:57;94671.25;;;7.97;78.88
6218;BME280;3142;48.206;11.550;2023-04-15T00:39:23;94670.03;;;7.93;79.04
6218;BME280;3142;48.206;11.550;2023-04-15T00:41:52;94675.66;;;7.97;80.14
6218;BME280;3142;48.206;11.550;2023-04-15T00:44:18;94671.25;;;7.97;80.13
6218;BME280;3142;48.206;11.550;2023-04-15T00:46:45;94665.22;;;7.97;79.94
6218;BME280;3142;48.206;11.550;2023-04-15T00:49:13;94661.84;;;7.96;79.52
6218;BME280;3142;48.206;11.550;2023-04-15T00:51:39;94662.84;;;7.95;80.36
6218;BME280;3142;48.206;11.550;2023-04-15T00:54:05;94662.03;;;7.95;80.47
6218;BME280;3142;48.206;11.550;2023-04-15T00:56:34;94656.00;;;7.94;79.71
6218;BME280;3142;48.206;11.550;2023-04-15T00:59:02;94660.25;;;7.95;79.36
6218;BME280;3142;48.206;11.550;2023-04-15T01:01:30;94662.84;;;7.95;80.48
6218;BME280;3142;48.206;11.550;2023-04-15T01:03:56;94664.66;;;7.95;79.48
6218;BME280;3142;48.206;11.550;2023-04-15T01:06:23;94660.25;;;7.95;79.37
6218;BME280;3142;48.206;11.550;2023-04-15T01:08:51;94661.44;;;7.93;79.49
6218;BME280;3142;48.206;11.550;2023-04-15T01:11:18;94665.63;;;7.94;79.11
6218;BME280;3142;48.206;11.550;2023-04-15T01:13:45;94668.06;;;7.95;80.34
6218;BME280;3142;48.206;11.550;2023-04-15T01:16:14;94663.03;;;7.94;80.72
6218;BME280;3142;48.206;11.550;2023-04-15T01:18:41;94658.22;;;7.97;79.96
6218;BME280;3142;48.206;11.550;2023-04-15T01:21:07;94658.22;;;7.97;79.24
6218;BME280;3142;48.206;11.550;2023-04-15T01:23:35;94649.22;;;7.93;80.00
6218;BME280;3142;48.206;11.550;2023-04-15T01:26:04;94658.03;;;7.92;79.56
6218;BME280;3142;48.206;11.550;2023-04-15T01:28:31;94654.63;;;7.92;79.22
6218;BME280;3142;48.206;11.550;2023-04-15T01:31:07;94655.22;;;7.94;79.35
6218;BME280;3142;48.206;11.550;2023-04-15T01:33:34;94660.63;;;7.92;80.42
6218;BME280;3142;48.206;11.550;2023-04-15T01:36:02;94660.63;;;7.92;79.29
6218;BME280;3142;48.206;11.550;2023-04-15T01:38:28;94663.66;;;7.89;79.59
6218;BME280;3142;48.206;11.550;2023-04-15T01:40:55;94663.66;;;7.89;80.33
6218;BME280;3142;48.206;11.550;2023-04-15T01:43:23;94660.25;;;7.89;79.80
6218;BME280;3142;48.206;11.550;2023-04-15T01:45:50;94671.25;;;7.91;80.01
6218;BME280;3142;48.206;11.550;2023-04-15T01:48:16;94669.25;;;7.93;80.50
6218;BME280;3142;48.206;11.550;2023-04-15T01:50:43;94663.44;;;7.91;79.19
6218;BME280;3142;48.206;11.550;2023-04-15T01:53:10;94661.06;;;7.89;79.26
6218;BME280;3142;48.206;11.550;2023-04-15T01:55:36;94670.66;;;7.89;80.17
6218;BME280;3142;48.206;11.550;2023-04-15T01:58:02;94666.47;;;7.88;79.12
6218;BME280;3142;48.206;11.550;2023-04-15T02:00:30;94667.91;;;7.84;80.07
6218;BME280;3142;48.206;11.550;2023-04-15T02:02:57;94666.91;;;7.85;79.92
6218;BME280;3142;48.206;11.550;2023-04-15T02:05:24;94664.91;;;7.80;79.34
6218;BME280;3142;48.206;11.550;2023-04-15T02:07:51;94656.09;;;7.81;79.44
6218;BME280;3142;48.206;11.550;2023-04-15T02:10:18;94660.91;;;7.78;79.18
6218;BME280;3142;48.206;11.550;2023-04-15T02:12:44;94659.09;;;7.78;79.12
6218;BME280;3142;48.206;11.550;2023-04-15T02:15:11;94666.91;;;7.78;79.34
6218;BME280;3142;48.206;11.550;2023-04-15T02:17:38;94666.72;;;7.80;79.46
6218;BME280;3142;48.206;11.550;2023-04-15T02:20:07;94671.13;;;7.79;79.89
6218;BME280;3142;48.206;11.550;2023-04-15T02:22:34;94667.34;;;7.75;78.84
6218;BME280;3142;48.206;11.550;2023-04-15T02:25:01;94668.94;;;7.76;78.97
6218;BME280;3142;48.206;11.550;2023-04-15T02:27:27;94666.34;;;7.76;79.30
6218;BME280;3142;48.206;11.550;2023-04-15T02:29:54;94666.13;;;7.78;78.47
6218;BME280;3142;48.206;11.550;2023-04-15T02:32:21;94669.72;;;7.77;78.84
6218;BME280;3142;48.206;11.550;2023-04-15T02:34:49;94666.53;;;7.75;78.35
6218;BME280;3142;48.206;11.550;2023-04-15T02:37:16;94660.53;;;7.74;79.46
6218;BME280;3142;48.206;11.550;2023-04-15T02:39:44;94665.56;;;7.69;78.44
6218;BME280;3142;48.206;11.550;2023-04-15T02:42:11;94674.97;;;7.70;79.47
6218;BME280;3142;48.206;11.550;2023-04-15T02:44:37;94668.75;;;7.71;79.23
6218;BME280;3142;48.206;11.550;2023-04-15T02:47:04;94667.75;;;7.72;79.58
6218;BME280;3142;48.206;11.550;2023-04-15T02:49:31;94664.94;;;7.73;79.78
6218;BME280;3142;48.206;11.550;2023-04-15T02:51:59;94667.75;;;7.72;79.35
6218;BME280;3142;48.206;11.550;2023-04-15T02:54:25;94660.97;;;7.71;78.25
6218;BME280;3142;48.206;11.550;2023-04-15T02:56:53;94655.75;;;7.71;78.23
6218;BME280;3142;48.206;11.550;2023-04-15T02:59:21;94667.97;;;7.70;78.29
6218;BME280;3142;48.206;11.550;2023-04-15T03:01:47;94662.56;;;7.72;79.23
6218;BME280;3142;48.206;11.550;2023-04-15T03:04:13;94656.75;;;7.70;79.07
6218;BME280;3142;48.206;11.550;2023-04-15T03:06:40;94666.97;;;7.71;79.29
6218;BME280;3142;48.206;11.550;2023-04-15T03:09:08;94659.94;;;7.72;78.12
6218;BME280;3142;48.206;11.550;2023-04-15T03:11:34;94665.56;;;7.69;79.14
6218;BME280;3142;48.206;11.550;2023-04-15T03:14:04;94669.78;;;7.70;79.02
6218;BME280;3142;48.206;11.550;2023-04-15T03:16:31;94673.19;;;7.70;78.81
6218;BME280;3142;48.206;11.550;2023-04-15T03:18:57;94671.97;;;7.73;79.77
6218;BME280;3142;48.206;11.550;2023-04-15T03:21:23;94680.34;;;7.75;78.12
6218;BME280;3142;48.206;11.550;2023-04-15T03:23:50;94680.19;;;7.70;78.55
6218;BME280;3142;48.206;11.550;2023-04-15T03:26:28;94677.16;;;7.73;78.37
6218;BME280;3142;48.206;11.550;2023-04-15T03:28:55;94682.38;;;7.73;78.42
6218;BME280;3142;48.206;11.550;2023-04-15T03:31:21;94682.53;;;7.78;78.09
6218;BME280;3142;48.206;11.550;2023-04-15T03:33:48;94687.56;;;7.73;78.72
6218;BME280;3142;48.206;11.550;2023-04-15T03:36:15;94685.94;;;7.79;77.83
6218;BME280;3142;48.206;11.550;2023-04-15T03:38:41;94681.31;;;7.81;78.47
6218;BME280;3142;48.206;11.550;2023-04-15T03:41:07;94692.94;;;7.78;78.08
6218;BME280;3142;48.206;11.550;2023-04-15T03:43:36;94682.16;;;7.81;77.88
6218;BME280;3142;48.206;11.550;2023-04-15T03:46:02;94683.75;;;7.82;78.19
6218;BME280;3142;48.206;11.550;2023-04-15T03:48:29;94683.91;;;7.81;78.29
6218;BME280;3142;48.206;11.550;2023-04-15T03:50:55;94684.34;;;7.78;77.14
6218;BME280;3142;48.206;11.550;2023-04-15T03:53:21;94684.94;;;7.80;77.11
6218;BME280;3142;48.206;11.550;2023-04-15T03:55:48;94683.53;;;7.77;77.90
6218;BME280;3142;48.206;11.550;2023-04-15T03:58:14;94685.97;;;7.72;77.11
6218;BME280;3142;48.206;11.550;2023-04-15T04:00:42;94682.59;;;7.71;77.54
6218;BME280;3142;48.206;11.550;2023-04-15T04:03:08;94683.16;;;7.73;77.91
6218;BME280;3142;48.206;11.550;2023-04-15T04:05:35;94685.97;;;7.72;78.10
6218;BME280;3142;48.206;11.550;2023-04-15T04:08:03;94680.56;;;7.73;77.47
6218;BME280;3142;48.206;11.550;2023-04-15T04:10:30;94684.19;;;7.72;78.21
6218;BME280;3142;48.206;11.550;2023-04-15T04:12:56;94685.41;;;7.70;78.49
6218;BME280;3142;48.206;11.550;2023-04-15T04:15:23;94679.59;;;7.68;77.30
6218;BME280;3142;48.206;11.550;2023-04-15T04:17:51;94677.97;;;7.67;77.33
6218;BME280;3142;48.206;11.550;2023-04-15T04:20:17;94674.00;;;7.64;77.39
6218;BME280;3142;48.206;11.550;2023-04-15T04:22:43;94682.38;;;7.66;78.20
6218;BME280;3142;48.206;11.550;2023-04-15T04:25:10;94675.78;;;7.64;77.31
6218;BME280;3142;48.206;11.550;2023-04-15T04:27:36;94686.00;;;7.65;77.56
6218;BME280;3142;48.206;11.550;2023-04-15T04:30:03;94683.59;;;7.64;78.12
6218;BME280;3142;48.206;11.550;2023-04-15T04:32:31;94688.81;;;7.64;77.78
6218;BME280;3142;48.206;11.550;2023-04-15T04:34:58;94679.63;;;7.61;78.01
6218;BME280;3142;48.206;11.550;2023-04-15T04:37:25;94684.44;;;7.58;77.42
6218;BME280;3142;48.206;11.550;2023-04-15T04:39:51;94678.25;;;7.52;77.84
6218;BME280;3142;48.206;11.550;2023-04-15T04:42:17;94684.06;;;7.54;77.90
6218;BME280;3142;48.206;11.550;2023-04-15T04:44:44;94684.44;;;7.58;77.78
6218;BME280;3142;48.206;11.550;2023-04-15T04:47:11;94684.66;;;7.56;76.94
6218;BME280;3142;48.206;11.550;2023-04-15T04:49:38;94688.25;;;7.55;76.92
6218;BME280;3142;48.206;11.550;2023-04-15T04:52:06;94692.47;;;7.56;77.63
6218;BME280;3142;48.206;11.550;2023-04-15T04:54:33;94692.03;;;7.53;77.32
6218;BME280;3142;48.206;11.550;2023-04-15T04:56:59;94690.66;;;7.50;76.69
6218;BME280;3142;48.206;11.550;2023-04-15T04:59:26;94686.84;;;7.53;77.46
6218;BME280;3142;48.206;11.550;2023-04-15T05:01:52;94686.03;;;7.52;76.65
6218;BME280;3142;48.206;11.550;2023-04-15T05:04:19;94695.06;;;7.56;76.91
6218;BME280;3142;48.206;11.550;2023-04-15T05:06:45;94693.47;;;7.55;76.64
6218;BME280;3142;48.206;11.550;2023-04-15T05:09:13;94696.44;;;7.52;76.85
6218;BME280;3142;48.206;11.550;2023-04-15T05:11:40;94686.03;;;7.52;77.17
6218;BME280;3142;48.206;11.550;2023-04-15T05:14:06;94682.84;;;7.50;77.01
6218;BME280;3142;48.206;11.550;2023-04-15T05:16:33;94683.66;;;7.51;76.89
6218;BME280;3142;48.206;11.550;2023-04-15T05:18:59;94676.84;;;7.50;76.47
6218;BME280;3142;48.206;11.550;2023-04-15T05:21:25;94683.44;;;7.52;76.36
6218;BME280;3142;48.206;11.550;2023-04-15T05:23:52;94680.84;;;7.52;75.97
6218;BME280;3142;48.206;11.550;2023-04-15T05:26:20;94676.84;;;7.50;75.84
6218;BME280;3142;48.206;11.550;2023-04-15T05:28:46;94684.44;;;7.51;76.06
6218;BME280;3142;48.206;11.550;2023-04-15T05:31:13;94684.28;;;7.46;76.22
6218;BME280;3142;48.206;11.550;2023-04-15T05:33:40;94684.88;;;7.48;75.34
6218;BME280;3142;48.206;11.550;2023-04-15T05:36:06;94686.47;;;7.49;75.16
6218;BME280;3142;48.206;11.550;2023-04-15T05:38:33;94683.06;;;7.49;75.64
6218;BME280;3142;48.206;11.550;2023-04-15T05:41:00;94679.88;;;7.47;75.65
6218;BME280;3142;48.206;11.550;2023-04-15T05:43:28;94684.28;;;7.46;75.22
6218;BME280;3142;48.206;11.550;2023-04-15T05:45:54;94684.47;;;7.45;74.16
6218;BME280;3142;48.206;11.550;2023-04-15T05:48:21;94683.91;;;7.42;74.46
6218;BME280;3142;48.206;11.550;2023-04-15T05:50:47;94685.88;;;7.47;73.58
6218;BME280;3142;48.206;11.550;2023-04-15T05:53:14;94686.66;;;7.48;73.59
6218;BME280;3142;48.206;11.550;2023-04-15T05:55:40;94686.66;;;7.48;73.38
6218;BME280;3142;48.206;11.550;2023-04-15T05:58:06;94692.09;;;7.46;72.79
6218;BME280;3142;48.206;11.550;2023-04-15T06:00:34;94683.47;;;7.46;73.26
6218;BME280;3142;48.206;11.550;2023-04-15T06:03:01;94699.25;;;7.51;73.56
6218;BME280;3142;48.206;11.550;2023-04-15T06:05:28;94689.06;;;7.49;73.05
6218;BME280;3142;48.206;11.550;2023-04-15T06:07:54;94696.25;;;7.54;72.31
6218;BME280;3142;48.206;11.550;2023-04-15T06:10:20;94696.88;;;7.56;71.40
6218;BME280;3142;48.206;11.550;2023-04-15T06:12:47;94700.66;;;7.53;71.48
6218;BME280;3142;48.206;11.550;2023-04-15T06:15:13;94697.25;;;7.53;71.73
6218;BME280;3142;48.206;11.550;2023-04-15T06:17:42;94706.66;;;7.60;71.27
6218;BME280;3142;48.206;11.550;2023-04-15T06:20:10;94703.03;;;7.61;70.83
6218;BME280;3142;48.206;11.550;2023-04-15T06:22:37;94698.22;;;7.65;71.06
6218;BME280;3142;48.206;11.550;2023-04-15T06:25:05;94698.22;;;7.65;70.82
6218;BME280;3142;48.206;11.550;2023-04-15T06:27:32;94695.81;;;7.70;69.80
6218;BME280;3142;48.206;11.550;2023-04-15T06:29:58;94694.38;;;7.74;70.71
6218;BME280;3142;48.206;11.550;2023-04-15T06:32:25;94696.56;;;7.77;69.87
6218;BME280;3142;48.206;11.550;2023-04-15T06:34:53;94694.97;;;7.76;69.04
6218;BME280;3142;48.206;11.550;2023-04-15T06:37:19;94702.56;;;7.78;68.97
6218;BME280;3142;48.206;11.550;2023-04-15T06:39:46;94693.16;;;7.83;69.66
6218;BME280;3142;48.206;11.550;2023-04-15T06:42:12;94698.16;;;7.85;70.26
6218;BME280;3142;48.206;11.550;2023-04-15T06:44:39;94706.75;;;7.85;68.91
6218;BME280;3142;48.206;11.550;2023-04-15T06:47:05;94703.78;;;7.82;67.70
6218;BME280;3142;48.206;11.550;2023-04-15T06:49:33;94710.16;;;7.86;67.93
6218;BME280;3142;48.206;11.550;2023-04-15T06:52:01;94704.75;;;7.87;68.03
6218;BME280;3142;48.206;11.550;2023-04-15T06:54:29;94709.91;;;7.94;67.81
6218;BME280;3142;48.206;11.550;2023-04-15T06:56:55;94707.28;;;8.00;67.35
6218;BME280;3142;48.206;11.550;2023-04-15T06:59:22;94708.81;;;8.08;66.91
6218;BME280;3142;48.206;11.550;2023-04-15T07:01:48;94708.16;;;8.19;66.54
6218;BME280;3142;48.206;11.550;2023-04-15T07:04:15;94707.91;;;8.34;67.19
6218;BME280;3142;48.206;11.550;2023-04-15T07:06:41;94713.84;;;8.48;65.32
6218;BME280;3142;48.206;11.550;2023-04-15T07:09:10;94712.56;;;8.57;64.44
6218;BME280;3142;48.206;11.550;2023-04-15T07:11:36;94707.91;;;8.66;63.72
6218;BME280;3142;48.206;11.550;2023-04-15T07:14:02;94711.91;;;8.68;63.80
6218;BME280;3142;48.206;11.550;2023-04-15T07:16:29;94721.25;;;8.76;64.00
6218;BME280;3142;48.206;11.550;2023-04-15T07:18:55;94714.97;;;8.83;63.43
6218;BME280;3142;48.206;11.550;2023-04-15T07:21:22;94711.94;;;8.86;63.67
6218;BME280;3142;48.206;11.550;2023-04-15T07:23:49;94711.09;;;8.93;63.42
6218;BME280;3142;48.206;11.550;2023-04-15T07:26:17;94716.91;;;8.95;63.55
6218;BME280;3142;48.206;11.550;2023-04-15T07:28:43;94712.19;;;9.03;62.95
6218;BME280;3142;48.206;11.550;2023-04-15T07:31:11;94711.13;;;9.11;61.93
6218;BME280;3142;48.206;11.550;2023-04-15T07:33:39;94719.28;;;9.21;63.10
6218;BME280;3142;48.206;11.550;2023-04-15T07:36:06;94715.97;;;9.32;62.54
6218;BME280;3142;48.206;11.550;2023-04-15T07:38:32;94712.91;;;9.54;63.06
6218;BME280;3142;48.206;11.550;2023-04-15T07:40:58;94714.00;;;9.83;62.01
6218;BME280;3142;48.206;11.550;2023-04-15T07:43:26;94721.31;;;10.41;59.81
6218;BME280;3142;48.206;11.550;2023-04-15T07:45:53;94709.78;;;10.60;58.29
6218;BME280;3142;48.206;11.550;2023-04-15T07:48:19;94719.22;;;10.61;57.70
6218;BME280;3142;48.206;11.550;2023-04-15T07:50:46;94716.06;;;10.71;57.56
6218;BME280;3142;48.206;11.550;2023-04-15T07:53:12;94710.06;;;11.05;56.96
6218;BME280;3142;48.206;11.550;2023-04-15T07:55:39;94712.88;;;11.50;56.88
6218;BME280;3142;48.206;11.550;2023-04-15T07:58:06;94710.94;;;11.93;56.66
6218;BME280;3142;48.206;11.550;2023-04-15T08:00:33;94715.47;;;12.26;54.04
6218;BME280;3142;48.206;11.550;2023-04-15T08:03:00;94712.34;;;12.12;55.23
6218;BME280;3142;48.206;11.550;2023-04-15T08:05:27;94710.03;;;12.15;55.24
6218;BME280;3142;48.206;11.550;2023-04-15T08:07:53;94707.97;;;12.46;55.65
6218;BME280;3142;48.206;11.550;2023-04-15T08:10:21;94703.63;;;12.85;53.89
6218;BME280;3142;48.206;11.550;2023-04-15T08:12:47;94697.75;;;12.95;52.97
6218;BME280;3142;48.206;11.550;2023-04-15T08:15:14;94689.53;;;12.58;55.11
6218;BME280;3142;48.206;11.550;2023-04-15T08:17:42;94702.22;;;12.32;53.13
6218;BME280;3142;48.206;11.550;2023-04-15T08:20:09;94704.16;;;12.08;53.53
6218;BME280;3142;48.206;11.550;2023-04-15T08:22:36;94698.63;;;11.81;54.00
6218;BME280;3142;48.206;11.550;2023-04-15T08:25:02;94686.91;;;11.61;54.75
6218;BME280;3142;48.206;11.550;2023-04-15T08:27:29;94692.78;;;11.39;55.52
6218;BME280;3142;48.206;11.550;2023-04-15T08:29:56;94696.84;;;11.35;55.72
6218;BME280;3142;48.206;11.550;2023-04-15T08:32:22;94690.81;;;11.35;56.27
6218;BME280;3142;48.206;11.550;2023-04-15T08:34:52;94693.22;;;11.24;55.47
6218;BME280;3142;48.206;11.550;2023-04-15T08:37:18;94699.94;;;11.09;56.78
6218;BME280;3142;48.206;11.550;2023-04-15T08:39:45;94690.72;;;11.06;58.37
6218;BME280;3142;48.206;11.550;2023-04-15T08:42:15;94701.66;;;11.03;57.10
6218;BME280;3142;48.206;11.550;2023-04-15T08:44:42;94701.28;;;10.88;57.64
6218;BME280;3142;48.206;11.550;2023-04-15T08:47:12;94702.78;;;10.84;57.89
6218;BME280;3142;48.206;11.550;2023-04-15T08:49:40;94710.47;;;10.67;58.51
6218;BME280;3142;48.206;11.550;2023-04-15T08:52:09;94698.84;;;10.63;58.81
6218;BME280;3142;48.206;11.550;2023-04-15T08:54:36;94707.16;;;10.60;59.53
6218;BME280;3142;48.206;11.550;2023-04-15T08:57:03;94714.78;;;10.61;59.95
6218;BME280;3142;48.206;11.550;2023-04-15T08:59:30;94713.72;;;10.51;58.87
6218;BME280;3142;48.206;11.550;2023-04-15T09:01:57;94722.03;;;10.48;58.51
6218;BME280;3142;48.206;11.550;2023-04-15T09:04:23;94717.91;;;10.40;59.63
6218;BME280;3142;48.206;11.550;2023-04-15T09:06:50;94721.91;;;10.43;58.42
6218;BME280;3142;48.206;11.550;2023-04-15T09:09:18;94719.75;;;10.51;59.38
6218;BME280;3142;48.206;11.550;2023-04-15T09:11:44;94717.84;;;10.58;59.49
6218;BME280;3142;48.206;11.550;2023-04-15T09:14:11;94721.38;;;10.64;59.61
6218;BME280;3142;48.206;11.550;2023-04-15T09:16:56;94719.34;;;10.66;59.04
6218;BME280;3142;48.206;11.550;2023-04-15T09:19:23;94728.19;;;10.65;59.07
6218;BME280;3142;48.206;11.550;2023-04-15T09:21:50;94726.25;;;10.60;58.74
6218;BME280;3142;48.206;11.550;2023-04-15T09:24:19;94725.69;;;10.58;58.92
6218;BME280;3142;48.206;11.550;2023-04-15T09:26:46;94729.91;;;10.59;59.01
6218;BME280;3142;48.206;11.550;2023-04-15T09:29:12;94731.94;;;10.57;59.13
6218;BME280;3142;48.206;11.550;2023-04-15T09:31:39;94732.53;;;10.59;59.04
6218;BME280;3142;48.206;11.550;2023-04-15T09:34:06;94734.78;;;10.67;59.49
6218;BME280;3142;48.206;11.550;2023-04-15T09:36:51;94728.34;;;10.70;58.91
6218;BME280;3142;48.206;11.550;2023-04-15T09:39:20;94736.72;;;10.60;59.68
6218;BME280;3142;48.206;11.550;2023-04-15T09:41:46;94728.66;;;10.62;59.83
6218;BME280;3142;48.206;11.550;2023-04-15T09:44:22;94739.34;;;10.60;59.75
6218;BME280;3142;48.206;11.550;2023-04-15T09:46:49;94735.78;;;10.55;60.32
6218;BME280;3142;48.206;11.550;2023-04-15T09:49:17;94743.50;;;10.50;60.06
6218;BME280;3142;48.206;11.550;2023-04-15T09:51:43;94739.66;;;10.52;60.45
6218;BME280;3142;48.206;11.550;2023-04-15T09:54:10;94747.38;;;10.47;60.81
6218;BME280;3142;48.206;11.550;2023-04-15T09:56:38;94750.06;;;10.41;61.15
6218;BME280;3142;48.206;11.550;2023-04-15T09:59:06;94748.06;;;10.43;60.92
6218;BME280;3142;48.206;11.550;2023-04-15T10:01:33;94751.81;;;10.47;60.40
6218;BME280;3142;48.206;11.550;2023-04-15T10:04:02;94751.00;;;10.46;59.96
6218;BME280;3142;48.206;11.550;2023-04-15T10:06:29;94742.59;;;10.44;59.64
6218;BME280;3142;48.206;11.550;2023-04-15T10:08:57;94746.56;;;10.47;60.05
6218;BME280;3142;48.206;11.550;2023-04-15T10:11:26;94747.25;;;10.42;60.16
6218;BME280;3142;48.206;11.550;2023-04-15T10:13:55;94744.41;;;10.44;60.14
6218;BME280;3142;48.206;11.550;2023-04-15T10:16:26;94749.06;;;10.42;60.16
6218;BME280;3142;48.206;11.550;2023-04-15T10:18:54;94749.06;;;10.42;60.15
6218;BME280;3142;48.206;11.550;2023-04-15T10:21:21;94750.44;;;10.44;60.26
6218;BME280;3142;48.206;11.550;2023-04-15T10:23:49;94746.56;;;10.47;60.31
6218;BME280;3142;48.206;11.550;2023-04-15T10:26:16;94744.53;;;10.49;60.61
6218;BME280;3142;48.206;11.550;2023-04-15T10:28:42;94754.53;;;10.52;60.59
6218;BME280;3142;48.206;11.550;2023-04-15T10:31:11;94755.34;;;10.52;60.32
6218;BME280;3142;48.206;11.550;2023-04-15T10:33:39;94750.03;;;10.59;59.85
6218;BME280;3142;48.206;11.550;2023-04-15T10:36:07;94757.09;;;10.58;59.99
6218;BME280;3142;48.206;11.550;2023-04-15T10:38:35;94761.28;;;10.59;59.96
6218;BME280;3142;48.206;11.550;2023-04-15T10:41:12;94754.31;;;10.53;59.44
6218;BME280;3142;48.206;11.550;2023-04-15T10:43:39;94758.19;;;10.51;60.09
6218;BME280;3142;48.206;11.550;2023-04-15T10:46:05;94755.13;;;10.54;59.59
6218;BME280;3142;48.206;11.550;2023-04-15T10:48:33;94760.28;;;10.60;59.22
6218;BME280;3142;48.206;11.550;2023-04-15T10:51:00;94764.25;;;10.63;59.83
6218;BME280;3142;48.206;11.550;2023-04-15T10:53:28;94752.78;;;10.64;60.09
6218;BME280;3142;48.206;11.550;2023-04-15T10:55:56;94759.03;;;10.63;60.27
6218;BME280;3142;48.206;11.550;2023-04-15T10:58:23;94760.75;;;10.69;60.06
6218;BME280;3142;48.206;11.550;2023-04-15T11:00:52;94762.78;;;10.67;60.32
6218;BME280;3142;48.206;11.550;2023-04-15T11:03:36;94757.13;;;10.70;59.75
6218;BME280;3142;48.206;11.550;2023-04-15T11:06:03;94765.31;;;10.74;58.70
6218;BME280;3142;48.206;11.550;2023-04-15T11:08:52;94764.16;;;10.70;59.22
6218;BME280;3142;48.206;11.550;2023-04-15T11:11:19;94760.16;;;10.67;59.48
6218;BME280;3142;48.206;11.550;2023-04-15T11:13:49;94750.63;;;10.73;59.49
6218;BME280;3142;48.206;11.550;2023-04-15T11:16:16;94752.09;;;10.68;57.87
6218;BME280;3142;48.206;11.550;2023-04-15T11:18:53;94754.94;;;10.67;58.69
6218;BME280;3142;48.206;11.550;2023-04-15T11:21:23;94763.69;;;10.61;58.87
6218;BME280;3142;48.206;11.550;2023-04-15T11:23:50;94761.50;;;10.58;59.50
6218;BME280;3142;48.206;11.550;2023-04-15T11:26:17;94760.72;;;10.57;59.48
6218;BME280;3142;48.206;11.550;2023-04-15T11:28:44;94766.53;;;10.59;59.76
6218;BME280;3142;48.206;11.550;2023-04-15T11:31:13;94766.06;;;10.62;59.32
6218;BME280;3142;48.206;11.550;2023-04-15T11:33:53;94773.69;;;10.64;59.80
6218;BME280;3142;48.206;11.550;2023-04-15T11:36:23;94763.91;;;10.59;59.71
6218;BME280;3142;48.206;11.550;2023-04-15T11:38:51;94773.13;;;10.62;59.23
6218;BME280;3142;48.206;11.550;2023-04-15T11:41:19;94769.47;;;10.63;59.46
6218;BME280;3142;48.206;11.550;2023-04-15T11:43:46;94771.53;;;10.61;59.52
6218;BME280;3142;48.206;11.550;2023-04-15T11:46:12;94774.72;;;10.63;60.03
6218;BME280;3142;48.206;11.550;2023-04-15T11:48:42;94777.09;;;10.64;60.03
6218;BME280;3142;48.206;11.550;2023-04-15T11:51:10;94782.00;;;10.61;60.23
6218;BME280;3142;48.206;11.550;2023-04-15T11:53:40;94776.31;;;10.64;59.91
6218;BME280;3142;48.206;11.550;2023-04-15T11:56:08;94778.81;;;10.59;59.77
6218;BME280;3142;48.206;11.550;2023-04-15T11:58:36;94781.53;;;10.64;58.77
6218;BME280;3142;48.206;11.550;2023-04-15T12:01:04;94779.94;;;10.63;58.76
6218;BME280;3142;48.206;11.550;2023-04-15T12:03:36;94770.72;;;10.60;59.32
6218;BME280;3142;48.206;11.550;2023-04-15T12:06:14;94777.78;;;10.60;58.67
6218;BME280;3142;48.206;11.550;2023-04-15T12:09:09;94786.66;;;10.59;57.36
6218;BME280;3142;48.206;11.550;2023-04-15T12:11:41;94788.81;;;10.62;57.66
6218;BME280;3142;48.206;11.550;2023-04-15T12:14:10;94782.56;;;10.63;57.38
6218;BME280;3142;48.206;11.550;2023-04-15T12:16:39;94782.78;;;10.61;56.76
6218;BME280;3142;48.206;11.550;2023-04-15T12:19:08;94796.66;;;10.62;56.46
6218;BME280;3142;48.206;11.550;2023-04-15T12:21:37;94788.81;;;10.62;56.80
6218;BME280;3142;48.206;11.550;2023-04-15T12:24:06;94794.97;;;10.67;56.48
6218;BME280;3142;48.206;11.550;2023-04-15T12:26:36;94793.53;;;10.72;56.51
6218;BME280;3142;48.206;11.550;2023-04-15T12:29:04;94800.56;;;10.71;56.83
6218;BME280;3142;48.206;11.550;2023-04-15T12:31:32;94811.38;;;10.75;56.26
6218;BME280;3142;48.206;11.550;2023-04-15T12:33:58;94798.88;;;10.77;56.01
6218;BME280;3142;48.206;11.550;2023-04-15T12:36:25;94798.53;;;10.73;53.38
6218;BME280;3142;48.206;11.550;2023-04-15T12:38:52;94812.13;;;10.63;53.58
6218;BME280;3142;48.206;11.550;2023-04-15T12:41:19;94813.38;;;10.61;53.30
6218;BME280;3142;48.206;11.550;2023-04-15T12:43:47;94816.06;;;10.54;52.86
6218;BME280;3142;48.206;11.550;2023-04-15T12:46:13;94815.50;;;10.52;51.38
6218;BME280;3142;48.206;11.550;2023-04-15T12:48:41;94826.75;;;10.53;50.57
6218;BME280;3142;48.206;11.550;2023-04-15T12:51:07;94822.75;;;10.50;51.03
6218;BME280;3142;48.206;11.550;2023-04-15T12:53:34;94833.44;;;10.49;49.98
6218;BME280;3142;48.206;11.550;2023-04-15T12:56:01;94830.72;;;10.44;50.30
6218;BME280;3142;48.206;11.550;2023-04-15T12:58:27;94836.78;;;10.37;51.35
6218;BME280;3142;48.206;11.550;2023-04-15T13:00:55;94837.38;;;10.39;52.40
6218;BME280;3142;48.206;11.550;2023-04-15T13:03:22;94832.00;;;10.34;52.44
6218;BME280;3142;48.206;11.550;2023-04-15T13:05:48;94830.19;;;10.35;52.15
6218;BME280;3142;48.206;11.550;2023-04-15T13:08:15;94837.03;;;10.36;51.96
6218;BME280;3142;48.206;11.550;2023-04-15T13:10:41;94841.69;;;10.34;52.64
6218;BME280;3142;48.206;11.550;2023-04-15T13:13:08;94847.47;;;10.36;53.14
6218;BME280;3142;48.206;11.550;2023-04-15T13:15:35;94849.75;;;10.32;54.11
6218;BME280;3142;48.206;11.550;2023-04-15T13:18:04;94856.34;;;10.35;53.88